createdAt,value
2023-02-13T00:05:21.710Z,101364.50
2023-02-13T00:15:23.246Z,101354.03
2023-02-13T00:25:24.812Z,101348.81
2023-02-13T00:35:26.188Z,101353.47
2023-02-13T00:45:27.581Z,101345.81
2023-02-13T00:55:28.986Z,101336.22
2023-02-13T01:05:30.560Z,101327.47
2023-02-13T01:15:32.572Z,101334.78
2023-02-13T01:25:34.107Z,101322.53
2023-02-13T01:35:35.499Z,101318.00
2023-02-13T01:45:37.011Z,101320.97
2023-02-13T01:55:52.930Z,101315.59
2023-02-13T02:05:54.891Z,101322.78
2023-02-13T02:15:56.321Z,101318.53
2023-02-13T02:26:31.263Z,101317.81
2023-02-13T02:36:40.861Z,101314.31
2023-02-13T02:47:11.164Z,101313.03
2023-02-13T02:57:19.258Z,101316.41
2023-02-13T03:07:20.705Z,101310.34
2023-02-13T03:17:40.661Z,101311.19
2023-02-13T03:28:16.238Z,101313.75
2023-02-13T03:38:30.032Z,101319.34
2023-02-13T03:48:56.032Z,101316.84
2023-02-13T03:59:16.194Z,101310.97
2023-02-13T04:09:17.744Z,101317.63
2023-02-13T04:19:19.311Z,101325.53
2023-02-13T04:29:24.151Z,101326.25
2023-02-13T04:39:25.579Z,101321.00
2023-02-13T04:49:27.102Z,101320.59
2023-02-13T04:59:28.622Z,101307.16
2023-02-13T05:09:29.987Z,101311.41
2023-02-13T05:19:31.551Z,101314.09
2023-02-13T05:29:32.921Z,101309.41
2023-02-13T05:39:34.304Z,101313.25
2023-02-13T05:49:36.790Z,101316.88
2023-02-13T05:59:38.538Z,101324.50
2023-02-13T06:09:40.141Z,101315.34
2023-02-13T06:19:41.541Z,101315.63
2023-02-13T06:29:42.939Z,101300.34
2023-02-13T06:39:45.198Z,101314.47
2023-02-13T06:49:46.597Z,101308.84
2023-02-13T06:59:48.163Z,101307.41
2023-02-13T07:09:49.547Z,101318.00
2023-02-13T07:19:51.066Z,101318.00
2023-02-13T07:29:52.670Z,101324.47
2023-02-13T07:39:54.074Z,101320.22
2023-02-13T07:49:55.605Z,101320.78
2023-02-13T07:59:56.998Z,101322.84
2023-02-13T08:10:17.014Z,101322.78
2023-02-13T08:20:18.471Z,101335.56
2023-02-13T08:30:19.899Z,101328.59
2023-02-13T08:40:23.499Z,101339.09
2023-02-13T08:50:27.166Z,101322.38
2023-02-13T09:00:28.773Z,101328.34
2023-02-13T09:10:31.258Z,101340.47
2023-02-13T09:20:33.917Z,101334.44
2023-02-13T09:30:36.165Z,101325.53
2023-02-13T09:41:02.701Z,101328.25
2023-02-13T09:51:04.359Z,101330.78
2023-02-13T10:01:07.011Z,101335.25
2023-02-13T10:11:58.834Z,101328.06
2023-02-13T10:22:18.471Z,101333.91
2023-02-13T10:32:21.186Z,101329.78
2023-02-13T10:42:25.608Z,101330.56
2023-02-13T10:52:33.588Z,101324.13
2023-02-13T11:02:36.740Z,101321.25
2023-02-13T11:12:38.331Z,101307.88
2023-02-13T11:22:42.312Z,101293.69
2023-02-13T11:32:43.706Z,101275.78
2023-02-13T11:42:45.425Z,101274.03
2023-02-13T11:53:00.511Z,101265.06
2023-02-13T12:03:02.103Z,101257.75
2023-02-13T12:13:13.563Z,101245.91
2023-02-13T12:23:43.834Z,101232.06
2023-02-13T12:34:18.896Z,101227.00
2023-02-13T12:44:29.185Z,101223.59
2023-02-13T12:55:04.447Z,101216.41
2023-02-13T13:05:34.476Z,101201.22
2023-02-13T13:15:40.977Z,101196.84
2023-02-13T13:25:51.689Z,101194.75
2023-02-13T13:36:07.662Z,101178.44
2023-02-13T13:46:22.542Z,101179.03
2023-02-13T13:56:23.961Z,101174.00
2023-02-13T14:06:44.268Z,101153.75
2023-02-13T14:16:46.056Z,101159.44
2023-02-13T14:27:04.931Z,101147.34
2023-02-13T14:37:20.721Z,101148.63
2023-02-13T14:47:43.639Z,101148.94
2023-02-13T14:57:54.222Z,101144.03
2023-02-13T15:08:13.569Z,101136.28
2023-02-13T15:18:20.749Z,101130.22
2023-02-13T15:28:22.136Z,101133.38
2023-02-13T15:38:37.723Z,101121.22
2023-02-13T15:48:39.113Z,101123.72
2023-02-13T15:58:40.504Z,101113.56
2023-02-13T16:08:52.179Z,101109.53
2023-02-13T16:18:53.815Z,101113.66
2023-02-13T16:28:55.694Z,101122.34
2023-02-13T16:38:57.142Z,101126.50
2023-02-13T16:49:01.334Z,101131.97
2023-02-13T16:59:10.568Z,101140.66
2023-02-13T17:09:12.087Z,101149.50
2023-02-13T17:19:13.538Z,101161.00
2023-02-13T17:29:14.925Z,101165.16
2023-02-13T17:39:16.490Z,101168.63
2023-02-13T17:49:17.901Z,101160.16
2023-02-13T17:59:19.438Z,101161.75
2023-02-13T18:09:21.351Z,101164.19
2023-02-13T18:19:22.891Z,101168.03
2023-02-13T18:29:24.355Z,101159.56
2023-02-13T18:39:25.743Z,101167.78
2023-02-13T18:49:27.179Z,101166.53
2023-02-13T18:59:28.645Z,101183.25
2023-02-13T19:09:30.257Z,101181.00
2023-02-13T19:19:31.817Z,101170.53
2023-02-13T19:29:33.361Z,101173.50
2023-02-13T19:39:34.772Z,101179.50
2023-02-13T19:49:36.319Z,101187.84
2023-02-13T19:59:37.857Z,101175.72
2023-02-13T20:09:40.268Z,101181.53
2023-02-13T20:19:41.672Z,101186.19
2023-02-13T20:29:43.179Z,101183.78
2023-02-13T20:39:44.565Z,101185.09
2023-02-13T20:49:45.983Z,101195.84
2023-02-13T20:59:47.408Z,101174.75
2023-02-13T21:09:48.792Z,101174.09
2023-02-13T21:19:50.398Z,101176.22
2023-02-13T21:29:51.876Z,101175.78
2023-02-13T21:39:53.271Z,101168.88
2023-02-13T21:49:54.671Z,101168.63
2023-02-13T21:59:57.006Z,101166.91
2023-02-13T22:09:58.455Z,101163.53
2023-02-13T22:19:59.852Z,101153.53
2023-02-13T22:30:01.387Z,101151.41
2023-02-13T22:40:03.479Z,101154.25
2023-02-13T22:50:05.619Z,101164.28
2023-02-13T23:00:08.664Z,101159.63
2023-02-13T23:10:10.580Z,101162.06
2023-02-13T23:20:12.197Z,101161.75
2023-02-13T23:30:14.631Z,101161.31
2023-02-13T23:40:16.382Z,101166.69
2023-02-13T23:50:17.851Z,101160.47
